ROMMA est une association bénévole à but non lucratif. Votre soutien est indispensable : ADHERER à ROMMA ou FAIRE un DON

Crest - (26, Drôme)

Vallée de la Drôme (315 m)   Longitude: 5°2' E   Latitude: 44°44' N Station partenaire n°62
 

Détail journalier du     <<     >>

Température Precipitation Humidité Pression Vent Dir Rafale Dir. rafale Ensol.
Heure (°C) (mm) (%) (hPa) (km/h) (km/h) (min)
01:00 1.609310343NE8NE0
02:00 1.209310343NE10ENE0
03:00 0.409410346SSO11SSO0
04:00 0.909410343NNE6SO0
05:00 0.609510343SSO8SSO0
06:00 0.409510343ENE6NE0
07:00 -0.209510343ENE10ENE0
08:00 -0.509510354NE8NE0
09:00 -0.509610353ENE6ENE0
10:00 -0.109610351ENE5ENE21
11:00 1.909710351E5ESE43
12:00 4.008010352SE8SE60
13:00 5.707210342SE6SE60
14:00 6.907610333S10S54
15:00 7.807210334S8ESE59
16:00 6.607710332SSE6S60
17:00 4.7080103303SSE37
18:00 2.9085103302SSE0
19:00 2.708710331---5SSE0
20:00 2.808910331SSE5SSE0
21:00 1.808910341SSE5SSE0
22:00 2.0091103403SSE0
23:00 2.009210341S5SSE0
minuit 2.409110341S3S0

Graphique du 30-12-2019

 

Serveur OMMA